sensor_id;sensor_type;location;lat;lon;timestamp;P1;durP1;ratioP1;P2;durP2;ratioP2
25187;SDS011;13141;50.414;8.050;2022-08-19T00:00:00;0.17;;;0.17;;
25187;SDS011;13141;50.414;8.050;2022-08-19T00:02:26;0.20;;;0.20;;
25187;SDS011;13141;50.414;8.050;2022-08-19T00:04:51;0.20;;;0.20;;
25187;SDS011;13141;50.414;8.050;2022-08-19T00:07:20;0.13;;;0.13;;
25187;SDS011;13141;50.414;8.050;2022-08-19T00:09:46;0.10;;;0.10;;
25187;SDS011;13141;50.414;8.050;2022-08-19T00:12:12;0.10;;;0.10;;
25187;SDS011;13141;50.414;8.050;2022-08-19T00:14:37;0.20;;;0.20;;
25187;SDS011;13141;50.414;8.050;2022-08-19T00:17:04;0.20;;;0.20;;
25187;SDS011;13141;50.414;8.050;2022-08-19T00:19:31;0.20;;;0.20;;
25187;SDS011;13141;50.414;8.050;2022-08-19T00:21:57;0.20;;;0.20;;
25187;SDS011;13141;50.414;8.050;2022-08-19T00:24:23;0.10;;;0.10;;
25187;SDS011;13141;50.414;8.050;2022-08-19T00:26:50;0.10;;;0.10;;
25187;SDS011;13141;50.414;8.050;2022-08-19T00:29:17;0.10;;;0.10;;
25187;SDS011;13141;50.414;8.050;2022-08-19T00:31:44;0.20;;;0.20;;
25187;SDS011;13141;50.414;8.050;2022-08-19T00:34:11;0.20;;;0.20;;
25187;SDS011;13141;50.414;8.050;2022-08-19T00:36:37;0.10;;;0.10;;
25187;SDS011;13141;50.414;8.050;2022-08-19T00:39:04;0.15;;;0.15;;
25187;SDS011;13141;50.414;8.050;2022-08-19T00:41:29;0.10;;;0.10;;
25187;SDS011;13141;50.414;8.050;2022-08-19T00:44:09;0.20;;;0.20;;
25187;SDS011;13141;50.414;8.050;2022-08-19T00:46:38;0.10;;;0.10;;
25187;SDS011;13141;50.414;8.050;2022-08-19T00:49:07;0.10;;;0.10;;
25187;SDS011;13141;50.414;8.050;2022-08-19T00:52:08;0.10;;;0.10;;
25187;SDS011;13141;50.414;8.050;2022-08-19T00:54:38;0.10;;;0.10;;
25187;SDS011;13141;50.414;8.050;2022-08-19T00:57:07;0.15;;;0.15;;
25187;SDS011;13141;50.414;8.050;2022-08-19T00:59:35;0.10;;;0.10;;
25187;SDS011;13141;50.414;8.050;2022-08-19T01:02:03;0.13;;;0.13;;
25187;SDS011;13141;50.414;8.050;2022-08-19T01:04:29;0.10;;;0.10;;
25187;SDS011;13141;50.414;8.050;2022-08-19T01:06:55;0.17;;;0.17;;
25187;SDS011;13141;50.414;8.050;2022-08-19T01:09:22;0.20;;;0.20;;
25187;SDS011;13141;50.414;8.050;2022-08-19T01:11:48;0.10;;;0.10;;
25187;SDS011;13141;50.414;8.050;2022-08-19T01:14:14;0.20;;;0.20;;
25187;SDS011;13141;50.414;8.050;2022-08-19T01:16:41;0.20;;;0.20;;
25187;SDS011;13141;50.414;8.050;2022-08-19T01:19:24;0.20;;;0.20;;
25187;SDS011;13141;50.414;8.050;2022-08-19T01:21:55;0.10;;;0.10;;
25187;SDS011;13141;50.414;8.050;2022-08-19T01:24:27;0.20;;;0.20;;
25187;SDS011;13141;50.414;8.050;2022-08-19T01:26:53;0.20;;;0.20;;
25187;SDS011;13141;50.414;8.050;2022-08-19T01:29:19;0.10;;;0.10;;
25187;SDS011;13141;50.414;8.050;2022-08-19T01:31:45;0.10;;;0.10;;
25187;SDS011;13141;50.414;8.050;2022-08-19T01:34:11;0.10;;;0.10;;
25187;SDS011;13141;50.414;8.050;2022-08-19T01:36:38;0.20;;;0.20;;
25187;SDS011;13141;50.414;8.050;2022-08-19T01:39:07;0.10;;;0.10;;
25187;SDS011;13141;50.414;8.050;2022-08-19T01:41:35;0.10;;;0.10;;
25187;SDS011;13141;50.414;8.050;2022-08-19T01:44:01;0.20;;;0.20;;
25187;SDS011;13141;50.414;8.050;2022-08-19T01:46:28;0.10;;;0.10;;
25187;SDS011;13141;50.414;8.050;2022-08-19T01:48:55;0.10;;;0.10;;
25187;SDS011;13141;50.414;8.050;2022-08-19T01:51:21;0.10;;;0.10;;
25187;SDS011;13141;50.414;8.050;2022-08-19T01:53:48;0.13;;;0.13;;
25187;SDS011;13141;50.414;8.050;2022-08-19T01:56:14;0.13;;;0.13;;
25187;SDS011;13141;50.414;8.050;2022-08-19T01:58:41;0.10;;;0.10;;
25187;SDS011;13141;50.414;8.050;2022-08-19T02:01:11;0.20;;;0.20;;
25187;SDS011;13141;50.414;8.050;2022-08-19T02:03:37;0.10;;;0.10;;
25187;SDS011;13141;50.414;8.050;2022-08-19T02:06:03;0.10;;;0.10;;
25187;SDS011;13141;50.414;8.050;2022-08-19T02:08:31;0.20;;;0.20;;
25187;SDS011;13141;50.414;8.050;2022-08-19T02:10:58;0.10;;;0.10;;
25187;SDS011;13141;50.414;8.050;2022-08-19T02:13:24;0.20;;;0.20;;
25187;SDS011;13141;50.414;8.050;2022-08-19T02:15:50;0.10;;;0.10;;
25187;SDS011;13141;50.414;8.050;2022-08-19T02:18:16;0.20;;;0.20;;
25187;SDS011;13141;50.414;8.050;2022-08-19T02:20:42;0.10;;;0.10;;
25187;SDS011;13141;50.414;8.050;2022-08-19T02:23:09;0.10;;;0.10;;
25187;SDS011;13141;50.414;8.050;2022-08-19T02:25:36;0.10;;;0.10;;
25187;SDS011;13141;50.414;8.050;2022-08-19T02:28:02;0.10;;;0.10;;
25187;SDS011;13141;50.414;8.050;2022-08-19T02:30:28;0.20;;;0.20;;
25187;SDS011;13141;50.414;8.050;2022-08-19T02:32:54;0.10;;;0.10;;
25187;SDS011;13141;50.414;8.050;2022-08-19T02:35:20;0.10;;;0.10;;
25187;SDS011;13141;50.414;8.050;2022-08-19T02:37:46;0.10;;;0.10;;
25187;SDS011;13141;50.414;8.050;2022-08-19T02:40:30;0.10;;;0.10;;
25187;SDS011;13141;50.414;8.050;2022-08-19T02:42:59;0.10;;;0.10;;
25187;SDS011;13141;50.414;8.050;2022-08-19T02:45:32;0.10;;;0.10;;
25187;SDS011;13141;50.414;8.050;2022-08-19T02:47:58;0.17;;;0.17;;
25187;SDS011;13141;50.414;8.050;2022-08-19T02:50:24;0.13;;;0.13;;
25187;SDS011;13141;50.414;8.050;2022-08-19T02:52:49;0.20;;;0.20;;
25187;SDS011;13141;50.414;8.050;2022-08-19T02:55:15;0.13;;;0.13;;
25187;SDS011;13141;50.414;8.050;2022-08-19T02:57:40;0.10;;;0.10;;
25187;SDS011;13141;50.414;8.050;2022-08-19T03:00:07;0.10;;;0.10;;
25187;SDS011;13141;50.414;8.050;2022-08-19T03:02:37;0.20;;;0.20;;
25187;SDS011;13141;50.414;8.050;2022-08-19T03:05:04;0.10;;;0.10;;
25187;SDS011;13141;50.414;8.050;2022-08-19T03:07:31;0.17;;;0.17;;
25187;SDS011;13141;50.414;8.050;2022-08-19T03:09:56;0.10;;;0.10;;
25187;SDS011;13141;50.414;8.050;2022-08-19T03:12:22;0.17;;;0.17;;
25187;SDS011;13141;50.414;8.050;2022-08-19T03:14:47;0.15;;;0.15;;
25187;SDS011;13141;50.414;8.050;2022-08-19T03:17:13;0.10;;;0.10;;
25187;SDS011;13141;50.414;8.050;2022-08-19T03:19:39;0.10;;;0.10;;
25187;SDS011;13141;50.414;8.050;2022-08-19T03:22:04;0.10;;;0.10;;
25187;SDS011;13141;50.414;8.050;2022-08-19T03:24:31;0.20;;;0.20;;
25187;SDS011;13141;50.414;8.050;2022-08-19T03:26:57;0.10;;;0.10;;
25187;SDS011;13141;50.414;8.050;2022-08-19T03:29:24;0.10;;;0.10;;
25187;SDS011;13141;50.414;8.050;2022-08-19T03:31:51;0.10;;;0.10;;
25187;SDS011;13141;50.414;8.050;2022-08-19T03:34:18;0.10;;;0.10;;
25187;SDS011;13141;50.414;8.050;2022-08-19T03:36:47;0.10;;;0.10;;
25187;SDS011;13141;50.414;8.050;2022-08-19T03:39:14;0.10;;;0.10;;
25187;SDS011;13141;50.414;8.050;2022-08-19T03:41:41;0.10;;;0.10;;
25187;SDS011;13141;50.414;8.050;2022-08-19T03:44:08;0.20;;;0.20;;
25187;SDS011;13141;50.414;8.050;2022-08-19T03:46:33;0.10;;;0.10;;
25187;SDS011;13141;50.414;8.050;2022-08-19T03:49:01;0.10;;;0.10;;
25187;SDS011;13141;50.414;8.050;2022-08-19T03:51:33;0.20;;;0.20;;
25187;SDS011;13141;50.414;8.050;2022-08-19T03:54:03;0.10;;;0.10;;
25187;SDS011;13141;50.414;8.050;2022-08-19T03:56:30;0.20;;;0.20;;
25187;SDS011;13141;50.414;8.050;2022-08-19T03:58:58;0.17;;;0.17;;
25187;SDS011;13141;50.414;8.050;2022-08-19T04:01:27;0.10;;;0.10;;
25187;SDS011;13141;50.414;8.050;2022-08-19T04:03:55;0.10;;;0.10;;
25187;SDS011;13141;50.414;8.050;2022-08-19T04:06:23;0.13;;;0.13;;
25187;SDS011;13141;50.414;8.050;2022-08-19T04:08:50;0.20;;;0.20;;
25187;SDS011;13141;50.414;8.050;2022-08-19T04:11:19;0.13;;;0.13;;
25187;SDS011;13141;50.414;8.050;2022-08-19T04:13:48;0.20;;;0.20;;
25187;SDS011;13141;50.414;8.050;2022-08-19T04:16:16;0.10;;;0.10;;
25187;SDS011;13141;50.414;8.050;2022-08-19T04:18:42;0.10;;;0.10;;
25187;SDS011;13141;50.414;8.050;2022-08-19T04:21:08;0.13;;;0.13;;
25187;SDS011;13141;50.414;8.050;2022-08-19T04:23:41;0.15;;;0.15;;
25187;SDS011;13141;50.414;8.050;2022-08-19T04:26:07;0.10;;;0.10;;
25187;SDS011;13141;50.414;8.050;2022-08-19T04:28:37;0.10;;;0.10;;
25187;SDS011;13141;50.414;8.050;2022-08-19T04:31:04;0.10;;;0.10;;
25187;SDS011;13141;50.414;8.050;2022-08-19T04:33:29;0.10;;;0.10;;
25187;SDS011;13141;50.414;8.050;2022-08-19T04:35:55;0.10;;;0.10;;
25187;SDS011;13141;50.414;8.050;2022-08-19T04:38:23;0.10;;;0.10;;
25187;SDS011;13141;50.414;8.050;2022-08-19T04:40:49;0.10;;;0.10;;
25187;SDS011;13141;50.414;8.050;2022-08-19T04:43:34;0.10;;;0.10;;
25187;SDS011;13141;50.414;8.050;2022-08-19T04:46:04;0.10;;;0.10;;
25187;SDS011;13141;50.414;8.050;2022-08-19T04:48:35;0.10;;;0.10;;
25187;SDS011;13141;50.414;8.050;2022-08-19T04:51:05;0.10;;;0.10;;
25187;SDS011;13141;50.414;8.050;2022-08-19T04:53:34;0.10;;;0.10;;
25187;SDS011;13141;50.414;8.050;2022-08-19T04:56:04;0.17;;;0.17;;
25187;SDS011;13141;50.414;8.050;2022-08-19T04:58:32;0.10;;;0.10;;
25187;SDS011;13141;50.414;8.050;2022-08-19T05:00:58;0.10;;;0.10;;
25187;SDS011;13141;50.414;8.050;2022-08-19T05:03:24;0.10;;;0.10;;
25187;SDS011;13141;50.414;8.050;2022-08-19T05:05:50;0.10;;;0.10;;
25187;SDS011;13141;50.414;8.050;2022-08-19T05:08:17;0.10;;;0.10;;
25187;SDS011;13141;50.414;8.050;2022-08-19T05:10:45;0.20;;;0.20;;
25187;SDS011;13141;50.414;8.050;2022-08-19T05:13:12;0.10;;;0.10;;
25187;SDS011;13141;50.414;8.050;2022-08-19T05:15:38;0.20;;;0.20;;
25187;SDS011;13141;50.414;8.050;2022-08-19T05:18:04;0.10;;;0.10;;
25187;SDS011;13141;50.414;8.050;2022-08-19T05:20:48;0.10;;;0.10;;
25187;SDS011;13141;50.414;8.050;2022-08-19T05:23:32;0.17;;;0.17;;
25187;SDS011;13141;50.414;8.050;2022-08-19T05:25:58;0.20;;;0.20;;
25187;SDS011;13141;50.414;8.050;2022-08-19T05:28:23;0.20;;;0.20;;
25187;SDS011;13141;50.414;8.050;2022-08-19T05:30:49;0.10;;;0.10;;
25187;SDS011;13141;50.414;8.050;2022-08-19T05:33:16;0.10;;;0.10;;
25187;SDS011;13141;50.414;8.050;2022-08-19T05:35:42;0.10;;;0.10;;
25187;SDS011;13141;50.414;8.050;2022-08-19T05:38:08;0.20;;;0.20;;
25187;SDS011;13141;50.414;8.050;2022-08-19T05:40:36;0.10;;;0.10;;
25187;SDS011;13141;50.414;8.050;2022-08-19T05:43:04;0.20;;;0.20;;
25187;SDS011;13141;50.414;8.050;2022-08-19T05:45:31;0.10;;;0.10;;
25187;SDS011;13141;50.414;8.050;2022-08-19T05:47:56;0.20;;;0.20;;
25187;SDS011;13141;50.414;8.050;2022-08-19T05:50:23;0.10;;;0.10;;
25187;SDS011;13141;50.414;8.050;2022-08-19T05:52:50;0.10;;;0.10;;
25187;SDS011;13141;50.414;8.050;2022-08-19T05:55:16;0.10;;;0.10;;
25187;SDS011;13141;50.414;8.050;2022-08-19T05:57:45;0.10;;;0.10;;
25187;SDS011;13141;50.414;8.050;2022-08-19T06:00:11;0.10;;;0.10;;
25187;SDS011;13141;50.414;8.050;2022-08-19T06:02:37;0.20;;;0.20;;
25187;SDS011;13141;50.414;8.050;2022-08-19T06:05:04;0.20;;;0.20;;
25187;SDS011;13141;50.414;8.050;2022-08-19T06:07:32;0.20;;;0.20;;
25187;SDS011;13141;50.414;8.050;2022-08-19T06:09:57;0.10;;;0.10;;
25187;SDS011;13141;50.414;8.050;2022-08-19T06:12:23;0.10;;;0.10;;
25187;SDS011;13141;50.414;8.050;2022-08-19T06:14:53;0.10;;;0.10;;
25187;SDS011;13141;50.414;8.050;2022-08-19T06:17:19;0.10;;;0.10;;
25187;SDS011;13141;50.414;8.050;2022-08-19T06:19:49;0.20;;;0.20;;
25187;SDS011;13141;50.414;8.050;2022-08-19T06:22:15;0.10;;;0.10;;
25187;SDS011;13141;50.414;8.050;2022-08-19T06:24:41;0.20;;;0.20;;
25187;SDS011;13141;50.414;8.050;2022-08-19T06:27:07;0.10;;;0.10;;
25187;SDS011;13141;50.414;8.050;2022-08-19T06:29:32;0.10;;;0.10;;
25187;SDS011;13141;50.414;8.050;2022-08-19T06:32:00;0.10;;;0.10;;
25187;SDS011;13141;50.414;8.050;2022-08-19T06:34:28;0.17;;;0.17;;
25187;SDS011;13141;50.414;8.050;2022-08-19T06:36:55;0.10;;;0.10;;
25187;SDS011;13141;50.414;8.050;2022-08-19T06:39:23;0.10;;;0.10;;
25187;SDS011;13141;50.414;8.050;2022-08-19T06:41:52;0.20;;;0.20;;
25187;SDS011;13141;50.414;8.050;2022-08-19T06:44:22;0.10;;;0.10;;
25187;SDS011;13141;50.414;8.050;2022-08-19T06:46:50;0.10;;;0.10;;
25187;SDS011;13141;50.414;8.050;2022-08-19T06:49:16;0.10;;;0.10;;
25187;SDS011;13141;50.414;8.050;2022-08-19T06:51:43;0.20;;;0.20;;
25187;SDS011;13141;50.414;8.050;2022-08-19T06:54:12;0.10;;;0.10;;
25187;SDS011;13141;50.414;8.050;2022-08-19T06:56:39;0.17;;;0.17;;
25187;SDS011;13141;50.414;8.050;2022-08-19T06:59:10;0.20;;;0.20;;
25187;SDS011;13141;50.414;8.050;2022-08-19T07:01:42;0.13;;;0.13;;
25187;SDS011;13141;50.414;8.050;2022-08-19T07:04:11;0.15;;;0.15;;
25187;SDS011;13141;50.414;8.050;2022-08-19T07:06:38;0.10;;;0.10;;
25187;SDS011;13141;50.414;8.050;2022-08-19T07:09:04;0.10;;;0.10;;
25187;SDS011;13141;50.414;8.050;2022-08-19T07:11:31;0.10;;;0.10;;
25187;SDS011;13141;50.414;8.050;2022-08-19T07:13:57;0.20;;;0.20;;
25187;SDS011;13141;50.414;8.050;2022-08-19T07:16:23;0.10;;;0.10;;
25187;SDS011;13141;50.414;8.050;2022-08-19T07:18:49;0.20;;;0.20;;
25187;SDS011;13141;50.414;8.050;2022-08-19T07:21:17;0.10;;;0.10;;
25187;SDS011;13141;50.414;8.050;2022-08-19T07:23:49;0.17;;;0.17;;
25187;SDS011;13141;50.414;8.050;2022-08-19T07:26:17;0.10;;;0.10;;
25187;SDS011;13141;50.414;8.050;2022-08-19T07:28:46;0.15;;;0.15;;
25187;SDS011;13141;50.414;8.050;2022-08-19T07:31:13;0.10;;;0.10;;
25187;SDS011;13141;50.414;8.050;2022-08-19T07:33:43;0.10;;;0.10;;
25187;SDS011;13141;50.414;8.050;2022-08-19T07:36:10;0.10;;;0.10;;
25187;SDS011;13141;50.414;8.050;2022-08-19T07:38:37;0.10;;;0.10;;
25187;SDS011;13141;50.414;8.050;2022-08-19T07:41:05;0.10;;;0.10;;
25187;SDS011;13141;50.414;8.050;2022-08-19T07:43:32;0.13;;;0.13;;
25187;SDS011;13141;50.414;8.050;2022-08-19T07:45:58;0.10;;;0.10;;
25187;SDS011;13141;50.414;8.050;2022-08-19T07:48:24;0.20;;;0.20;;
25187;SDS011;13141;50.414;8.050;2022-08-19T07:50:51;0.10;;;0.10;;
25187;SDS011;13141;50.414;8.050;2022-08-19T07:53:19;0.10;;;0.10;;
25187;SDS011;13141;50.414;8.050;2022-08-19T07:55:45;0.20;;;0.20;;
25187;SDS011;13141;50.414;8.050;2022-08-19T07:58:12;0.10;;;0.10;;
25187;SDS011;13141;50.414;8.050;2022-08-19T08:00:40;0.10;;;0.10;;
25187;SDS011;13141;50.414;8.050;2022-08-19T08:03:07;0.10;;;0.10;;
25187;SDS011;13141;50.414;8.050;2022-08-19T08:05:33;0.20;;;0.20;;
25187;SDS011;13141;50.414;8.050;2022-08-19T08:08:18;0.10;;;0.10;;
25187;SDS011;13141;50.414;8.050;2022-08-19T08:11:03;0.10;;;0.10;;
25187;SDS011;13141;50.414;8.050;2022-08-19T08:13:30;0.13;;;0.13;;
25187;SDS011;13141;50.414;8.050;2022-08-19T08:15:56;0.20;;;0.20;;
25187;SDS011;13141;50.414;8.050;2022-08-19T08:18:22;0.20;;;0.20;;
25187;SDS011;13141;50.414;8.050;2022-08-19T08:20:48;0.10;;;0.10;;
25187;SDS011;13141;50.414;8.050;2022-08-19T08:23:14;0.13;;;0.13;;
25187;SDS011;13141;50.414;8.050;2022-08-19T08:25:54;0.10;;;0.10;;
25187;SDS011;13141;50.414;8.050;2022-08-19T08:28:21;0.10;;;0.10;;
25187;SDS011;13141;50.414;8.050;2022-08-19T08:30:48;0.10;;;0.10;;
25187;SDS011;13141;50.414;8.050;2022-08-19T08:33:18;0.20;;;0.20;;
25187;SDS011;13141;50.414;8.050;2022-08-19T08:35:46;0.10;;;0.10;;
25187;SDS011;13141;50.414;8.050;2022-08-19T08:38:12;0.10;;;0.10;;
25187;SDS011;13141;50.414;8.050;2022-08-19T08:43:08;0.10;;;0.10;;
25187;SDS011;13141;50.414;8.050;2022-08-19T08:49:04;0.10;;;0.10;;
25187;SDS011;13141;50.414;8.050;2022-08-19T08:51:51;0.10;;;0.10;;
25187;SDS011;13141;50.414;8.050;2022-08-19T08:54:25;0.13;;;0.13;;
25187;SDS011;13141;50.414;8.050;2022-08-19T08:56:57;0.20;;;0.20;;
25187;SDS011;13141;50.414;8.050;2022-08-19T08:59:28;0.20;;;0.20;;
25187;SDS011;13141;50.414;8.050;2022-08-19T09:01:59;0.20;;;0.20;;
25187;SDS011;13141;50.414;8.050;2022-08-19T09:04:25;0.20;;;0.20;;
25187;SDS011;13141;50.414;8.050;2022-08-19T09:07:06;0.20;;;0.20;;
25187;SDS011;13141;50.414;8.050;2022-08-19T09:09:43;0.20;;;0.20;;
25187;SDS011;13141;50.414;8.050;2022-08-19T09:14:49;0.10;;;0.10;;
25187;SDS011;13141;50.414;8.050;2022-08-19T09:17:23;0.10;;;0.10;;
25187;SDS011;13141;50.414;8.050;2022-08-19T09:22:44;0.10;;;0.10;;
25187;SDS011;13141;50.414;8.050;2022-08-19T09:25:11;0.20;;;0.20;;
25187;SDS011;13141;50.414;8.050;2022-08-19T09:27:39;0.10;;;0.10;;
25187;SDS011;13141;50.414;8.050;2022-08-19T09:30:07;0.10;;;0.10;;
25187;SDS011;13141;50.414;8.050;2022-08-19T09:32:36;0.20;;;0.20;;
25187;SDS011;13141;50.414;8.050;2022-08-19T09:35:04;0.20;;;0.20;;
25187;SDS011;13141;50.414;8.050;2022-08-19T09:37:31;0.20;;;0.20;;
25187;SDS011;13141;50.414;8.050;2022-08-19T09:39:56;0.15;;;0.15;;
25187;SDS011;13141;50.414;8.050;2022-08-19T09:42:22;0.15;;;0.15;;
25187;SDS011;13141;50.414;8.050;2022-08-19T09:44:48;0.10;;;0.10;;
25187;SDS011;13141;50.414;8.050;2022-08-19T09:47:13;0.20;;;0.20;;
25187;SDS011;13141;50.414;8.050;2022-08-19T09:49:40;0.28;;;0.28;;
25187;SDS011;13141;50.414;8.050;2022-08-19T09:52:07;0.20;;;0.20;;
25187;SDS011;13141;50.414;8.050;2022-08-19T09:54:33;0.20;;;0.20;;
25187;SDS011;13141;50.414;8.050;2022-08-19T09:56:59;0.20;;;0.20;;
25187;SDS011;13141;50.414;8.050;2022-08-19T09:59:25;0.20;;;0.20;;
25187;SDS011;13141;50.414;8.050;2022-08-19T10:01:52;0.20;;;0.20;;
25187;SDS011;13141;50.414;8.050;2022-08-19T10:04:18;0.20;;;0.20;;
25187;SDS011;13141;50.414;8.050;2022-08-19T10:06:45;0.25;;;0.25;;
25187;SDS011;13141;50.414;8.050;2022-08-19T10:09:13;0.30;;;0.30;;
25187;SDS011;13141;50.414;8.050;2022-08-19T10:11:40;0.20;;;0.20;;
25187;SDS011;13141;50.414;8.050;2022-08-19T10:14:07;0.20;;;0.20;;
25187;SDS011;13141;50.414;8.050;2022-08-19T10:16:33;0.20;;;0.20;;
25187;SDS011;13141;50.414;8.050;2022-08-19T10:19:00;0.20;;;0.20;;
25187;SDS011;13141;50.414;8.050;2022-08-19T10:21:27;0.20;;;0.20;;
25187;SDS011;13141;50.414;8.050;2022-08-19T10:23:56;0.10;;;0.10;;
25187;SDS011;13141;50.414;8.050;2022-08-19T10:26:25;0.20;;;0.20;;
25187;SDS011;13141;50.414;8.050;2022-08-19T10:28:55;0.10;;;0.10;;
25187;SDS011;13141;50.414;8.050;2022-08-19T10:31:22;0.30;;;0.30;;
25187;SDS011;13141;50.414;8.050;2022-08-19T10:33:50;0.30;;;0.30;;
25187;SDS011;13141;50.414;8.050;2022-08-19T10:36:23;0.17;;;0.17;;
25187;SDS011;13141;50.414;8.050;2022-08-19T10:38:55;0.20;;;0.20;;
25187;SDS011;13141;50.414;8.050;2022-08-19T10:41:25;0.25;;;0.25;;
25187;SDS011;13141;50.414;8.050;2022-08-19T10:43:53;0.25;;;0.25;;
25187;SDS011;13141;50.414;8.050;2022-08-19T10:46:22;0.30;;;0.30;;
25187;SDS011;13141;50.414;8.050;2022-08-19T10:48:49;0.20;;;0.20;;
25187;SDS011;13141;50.414;8.050;2022-08-19T10:51:15;0.30;;;0.30;;
25187;SDS011;13141;50.414;8.050;2022-08-19T10:54:00;0.40;;;0.40;;
25187;SDS011;13141;50.414;8.050;2022-08-19T10:56:26;0.40;;;0.40;;
25187;SDS011;13141;50.414;8.050;2022-08-19T10:59:12;0.30;;;0.30;;
25187;SDS011;13141;50.414;8.050;2022-08-19T11:01:39;0.20;;;0.20;;
25187;SDS011;13141;50.414;8.050;2022-08-19T11:04:06;0.30;;;0.30;;
25187;SDS011;13141;50.414;8.050;2022-08-19T11:06:35;0.28;;;0.28;;
25187;SDS011;13141;50.414;8.050;2022-08-19T11:09:01;0.30;;;0.30;;
25187;SDS011;13141;50.414;8.050;2022-08-19T11:11:27;0.30;;;0.30;;
25187;SDS011;13141;50.414;8.050;2022-08-19T11:13:53;0.30;;;0.30;;
25187;SDS011;13141;50.414;8.050;2022-08-19T11:16:20;0.20;;;0.20;;
25187;SDS011;13141;50.414;8.050;2022-08-19T11:18:50;0.30;;;0.30;;
25187;SDS011;13141;50.414;8.050;2022-08-19T11:21:22;0.30;;;0.30;;
25187;SDS011;13141;50.414;8.050;2022-08-19T11:23:56;0.30;;;0.30;;
25187;SDS011;13141;50.414;8.050;2022-08-19T11:26:23;0.20;;;0.20;;
25187;SDS011;13141;50.414;8.050;2022-08-19T11:28:50;0.30;;;0.30;;
25187;SDS011;13141;50.414;8.050;2022-08-19T11:31:22;0.30;;;0.30;;
25187;SDS011;13141;50.414;8.050;2022-08-19T11:33:50;0.30;;;0.30;;
25187;SDS011;13141;50.414;8.050;2022-08-19T11:36:18;0.35;;;0.35;;
25187;SDS011;13141;50.414;8.050;2022-08-19T11:38:45;0.20;;;0.20;;
25187;SDS011;13141;50.414;8.050;2022-08-19T11:41:13;0.20;;;0.20;;
25187;SDS011;13141;50.414;8.050;2022-08-19T11:43:40;0.30;;;0.30;;
25187;SDS011;13141;50.414;8.050;2022-08-19T11:46:07;0.20;;;0.20;;
25187;SDS011;13141;50.414;8.050;2022-08-19T11:48:35;0.20;;;0.20;;
25187;SDS011;13141;50.414;8.050;2022-08-19T11:51:03;0.30;;;0.30;;
25187;SDS011;13141;50.414;8.050;2022-08-19T11:53:31;0.20;;;0.20;;
25187;SDS011;13141;50.414;8.050;2022-08-19T11:55:58;0.30;;;0.30;;
25187;SDS011;13141;50.414;8.050;2022-08-19T11:58:23;0.20;;;0.20;;
25187;SDS011;13141;50.414;8.050;2022-08-19T12:00:49;0.20;;;0.20;;
25187;SDS011;13141;50.414;8.050;2022-08-19T12:03:16;0.22;;;0.22;;
25187;SDS011;13141;50.414;8.050;2022-08-19T12:05:43;0.30;;;0.30;;
25187;SDS011;13141;50.414;8.050;2022-08-19T12:08:08;0.30;;;0.30;;
25187;SDS011;13141;50.414;8.050;2022-08-19T12:10:34;0.30;;;0.30;;
25187;SDS011;13141;50.414;8.050;2022-08-19T12:13:00;0.30;;;0.30;;
25187;SDS011;13141;50.414;8.050;2022-08-19T12:15:26;0.40;;;0.40;;
25187;SDS011;13141;50.414;8.050;2022-08-19T12:17:53;0.30;;;0.30;;
25187;SDS011;13141;50.414;8.050;2022-08-19T12:20:21;0.40;;;0.40;;
25187;SDS011;13141;50.414;8.050;2022-08-19T12:22:49;0.30;;;0.30;;
25187;SDS011;13141;50.414;8.050;2022-08-19T12:25:15;0.40;;;0.40;;
25187;SDS011;13141;50.414;8.050;2022-08-19T12:27:41;0.37;;;0.37;;
25187;SDS011;13141;50.414;8.050;2022-08-19T12:30:08;0.30;;;0.30;;
25187;SDS011;13141;50.414;8.050;2022-08-19T12:32:36;0.40;;;0.40;;
25187;SDS011;13141;50.414;8.050;2022-08-19T12:35:02;0.30;;;0.30;;
25187;SDS011;13141;50.414;8.050;2022-08-19T12:37:28;0.28;;;0.28;;
25187;SDS011;13141;50.414;8.050;2022-08-19T12:39:54;0.20;;;0.20;;
25187;SDS011;13141;50.414;8.050;2022-08-19T12:42:20;0.28;;;0.28;;
25187;SDS011;13141;50.414;8.050;2022-08-19T12:44:46;0.25;;;0.25;;
25187;SDS011;13141;50.414;8.050;2022-08-19T12:47:12;0.20;;;0.20;;
25187;SDS011;13141;50.414;8.050;2022-08-19T12:49:39;0.30;;;0.30;;
25187;SDS011;13141;50.414;8.050;2022-08-19T12:52:06;0.28;;;0.28;;
25187;SDS011;13141;50.414;8.050;2022-08-19T12:54:33;0.30;;;0.30;;
25187;SDS011;13141;50.414;8.050;2022-08-19T12:57:00;0.40;;;0.40;;
25187;SDS011;13141;50.414;8.050;2022-08-19T12:59:29;0.20;;;0.20;;
25187;SDS011;13141;50.414;8.050;2022-08-19T13:01:54;0.30;;;0.30;;
25187;SDS011;13141;50.414;8.050;2022-08-19T13:04:20;0.28;;;0.28;;
25187;SDS011;13141;50.414;8.050;2022-08-19T13:06:46;0.25;;;0.25;;
25187;SDS011;13141;50.414;8.050;2022-08-19T13:09:11;0.30;;;0.30;;
25187;SDS011;13141;50.414;8.050;2022-08-19T13:11:37;0.30;;;0.30;;
25187;SDS011;13141;50.414;8.050;2022-08-19T13:14:03;0.30;;;0.30;;
25187;SDS011;13141;50.414;8.050;2022-08-19T13:16:29;0.20;;;0.20;;
25187;SDS011;13141;50.414;8.050;2022-08-19T13:18:55;0.22;;;0.22;;
25187;SDS011;13141;50.414;8.050;2022-08-19T13:21:23;0.20;;;0.20;;
25187;SDS011;13141;50.414;8.050;2022-08-19T13:23:52;0.30;;;0.30;;
25187;SDS011;13141;50.414;8.050;2022-08-19T13:26:18;0.30;;;0.30;;
25187;SDS011;13141;50.414;8.050;2022-08-19T13:28:45;0.20;;;0.20;;
25187;SDS011;13141;50.414;8.050;2022-08-19T13:31:31;0.20;;;0.20;;
25187;SDS011;13141;50.414;8.050;2022-08-19T13:34:19;0.20;;;0.20;;
25187;SDS011;13141;50.414;8.050;2022-08-19T13:36:55;0.28;;;0.28;;
25187;SDS011;13141;50.414;8.050;2022-08-19T13:39:21;0.30;;;0.30;;
25187;SDS011;13141;50.414;8.050;2022-08-19T13:41:48;0.30;;;0.30;;
25187;SDS011;13141;50.414;8.050;2022-08-19T13:44:15;0.20;;;0.20;;
25187;SDS011;13141;50.414;8.050;2022-08-19T13:46:43;0.20;;;0.20;;
25187;SDS011;13141;50.414;8.050;2022-08-19T13:49:09;0.20;;;0.20;;
25187;SDS011;13141;50.414;8.050;2022-08-19T13:51:37;0.30;;;0.30;;
25187;SDS011;13141;50.414;8.050;2022-08-19T13:54:04;0.20;;;0.20;;
25187;SDS011;13141;50.414;8.050;2022-08-19T13:56:30;0.30;;;0.30;;
25187;SDS011;13141;50.414;8.050;2022-08-19T13:58:56;0.30;;;0.30;;
25187;SDS011;13141;50.414;8.050;2022-08-19T14:01:23;0.20;;;0.20;;
25187;SDS011;13141;50.414;8.050;2022-08-19T14:03:49;0.20;;;0.20;;
25187;SDS011;13141;50.414;8.050;2022-08-19T14:06:14;0.30;;;0.30;;
25187;SDS011;13141;50.414;8.050;2022-08-19T14:08:41;0.20;;;0.20;;
25187;SDS011;13141;50.414;8.050;2022-08-19T14:11:07;0.30;;;0.30;;
25187;SDS011;13141;50.414;8.050;2022-08-19T14:13:33;0.30;;;0.30;;
25187;SDS011;13141;50.414;8.050;2022-08-19T14:15:59;0.20;;;0.20;;
25187;SDS011;13141;50.414;8.050;2022-08-19T14:18:24;0.30;;;0.30;;
25187;SDS011;13141;50.414;8.050;2022-08-19T14:20:50;0.30;;;0.30;;
25187;SDS011;13141;50.414;8.050;2022-08-19T14:23:17;0.20;;;0.20;;
25187;SDS011;13141;50.414;8.050;2022-08-19T14:25:43;0.30;;;0.30;;
25187;SDS011;13141;50.414;8.050;2022-08-19T14:28:09;0.22;;;0.22;;
25187;SDS011;13141;50.414;8.050;2022-08-19T14:30:35;0.30;;;0.30;;
25187;SDS011;13141;50.414;8.050;2022-08-19T14:33:02;0.30;;;0.30;;
25187;SDS011;13141;50.414;8.050;2022-08-19T14:35:30;0.28;;;0.28;;
25187;SDS011;13141;50.414;8.050;2022-08-19T14:37:59;0.30;;;0.30;;
25187;SDS011;13141;50.414;8.050;2022-08-19T14:40:27;0.30;;;0.30;;
25187;SDS011;13141;50.414;8.050;2022-08-19T14:42:55;0.30;;;0.30;;
25187;SDS011;13141;50.414;8.050;2022-08-19T14:45:24;0.30;;;0.30;;
25187;SDS011;13141;50.414;8.050;2022-08-19T14:47:52;0.30;;;0.30;;
25187;SDS011;13141;50.414;8.050;2022-08-19T14:50:17;0.28;;;0.28;;
25187;SDS011;13141;50.414;8.050;2022-08-19T14:52:45;0.30;;;0.30;;
25187;SDS011;13141;50.414;8.050;2022-08-19T14:55:13;0.20;;;0.20;;
25187;SDS011;13141;50.414;8.050;2022-08-19T14:57:40;0.25;;;0.25;;
25187;SDS011;13141;50.414;8.050;2022-08-19T15:00:06;0.30;;;0.30;;
25187;SDS011;13141;50.414;8.050;2022-08-19T15:02:36;0.40;;;0.40;;